createdAt,value
2023-02-01T00:04:56.134Z,2.80
2023-02-01T00:09:57.522Z,3.55
2023-02-01T00:14:59.583Z,4.72
2023-02-01T00:20:00.930Z,3.85
2023-02-01T00:25:02.262Z,4.47
2023-02-01T00:30:04.144Z,3.97
2023-02-01T00:35:06.041Z,3.65
2023-02-01T00:40:08.339Z,2.65
2023-02-01T00:45:10.444Z,5.03
2023-02-01T00:50:12.023Z,3.78
2023-02-01T00:55:13.438Z,4.45
2023-02-01T01:00:15.463Z,2.78
2023-02-01T01:05:17.107Z,3.22
2023-02-01T01:10:18.601Z,3.97
2023-02-01T01:15:20.072Z,3.78
2023-02-01T01:20:22.837Z,3.88
2023-02-01T01:25:24.351Z,5.53
2023-02-01T01:30:25.740Z,3.70
2023-02-01T01:35:27.216Z,5.18
2023-02-01T01:40:30.064Z,5.25
2023-02-01T01:45:34.069Z,6.05
2023-02-01T01:50:49.166Z,7.87
2023-02-01T01:55:53.133Z,5.32
2023-02-01T02:00:55.151Z,4.80
2023-02-01T02:05:59.824Z,4.75
2023-02-01T02:11:01.642Z,4.38
2023-02-01T02:16:35.341Z,5.90
2023-02-01T02:21:55.552Z,4.63
2023-02-01T02:27:34.569Z,4.65
2023-02-01T02:33:07.720Z,4.95
2023-02-01T02:38:38.450Z,4.72
2023-02-01T02:44:12.622Z,5.55
2023-02-01T02:49:30.069Z,7.70
2023-02-01T02:54:48.237Z,6.32
2023-02-01T03:00:08.584Z,7.50
2023-02-01T03:05:10.149Z,6.57
2023-02-01T03:10:21.329Z,5.97
2023-02-01T03:15:30.738Z,6.32
2023-02-01T03:20:33.449Z,5.35
2023-02-01T03:25:35.571Z,5.30
2023-02-01T03:30:40.204Z,9.05
2023-02-01T03:35:50.817Z,4.88
2023-02-01T03:40:58.743Z,5.75
2023-02-01T03:46:06.323Z,5.20
2023-02-01T03:51:10.430Z,5.35
2023-02-01T03:56:12.563Z,4.33
2023-02-01T04:01:13.993Z,4.78
2023-02-01T04:06:15.302Z,3.67
2023-02-01T04:11:16.922Z,3.80
2023-02-01T04:16:18.432Z,4.22
2023-02-01T04:21:19.868Z,6.35
2023-02-01T04:26:22.556Z,4.13
2023-02-01T04:31:26.698Z,6.05
2023-02-01T04:36:28.180Z,5.17
2023-02-01T04:41:29.967Z,5.22
2023-02-01T04:46:31.501Z,4.95
2023-02-01T04:51:33.399Z,5.55
2023-02-01T04:56:38.301Z,4.30
2023-02-01T05:06:41.140Z,3.92
2023-02-01T05:12:01.291Z,5.00
2023-02-01T05:17:02.704Z,4.35
2023-02-01T05:22:04.041Z,8.75
2023-02-01T05:27:05.512Z,6.88
2023-02-01T05:32:21.039Z,4.30
2023-02-01T05:37:23.621Z,5.95
2023-02-01T05:42:24.995Z,5.05
2023-02-01T05:47:26.638Z,6.50
2023-02-01T05:52:27.959Z,6.65
2023-02-01T05:57:30.111Z,5.50
2023-02-01T06:02:31.940Z,5.68
2023-02-01T06:07:33.487Z,6.05
2023-02-01T06:12:34.827Z,8.65
2023-02-01T06:17:36.631Z,6.65
2023-02-01T06:22:38.223Z,5.53
2023-02-01T06:27:39.645Z,5.75
2023-02-01T06:32:41.387Z,6.25
2023-02-01T06:37:43.012Z,9.27
2023-02-01T06:42:44.372Z,10.38
2023-02-01T06:47:45.833Z,4.65
2023-02-01T06:52:47.128Z,9.00
2023-02-01T06:57:48.437Z,9.73
2023-02-01T07:02:51.779Z,8.55
2023-02-01T07:07:53.128Z,10.50
2023-02-01T07:12:58.354Z,10.57
2023-02-01T07:17:59.795Z,10.30
2023-02-01T07:23:01.173Z,6.97
2023-02-01T07:28:02.490Z,13.05
2023-02-01T07:33:03.992Z,8.50
2023-02-01T07:38:05.287Z,10.57
2023-02-01T07:43:08.824Z,11.80
2023-02-01T07:48:10.265Z,9.18
2023-02-01T07:53:11.739Z,8.45
2023-02-01T07:58:13.042Z,7.75
2023-02-01T08:03:15.974Z,11.40
2023-02-01T08:08:18.619Z,10.55
2023-02-01T08:13:19.953Z,7.20
2023-02-01T08:18:21.843Z,8.82
2023-02-01T08:23:24.245Z,10.10
2023-02-01T08:28:25.682Z,6.93
2023-02-01T08:33:26.977Z,7.03
2023-02-01T08:38:28.597Z,7.43
2023-02-01T08:43:29.918Z,10.00
2023-02-01T08:48:32.135Z,7.90
2023-02-01T08:53:33.815Z,11.93
2023-02-01T08:58:35.475Z,9.07
2023-02-01T09:03:37.095Z,8.60
2023-02-01T09:08:40.084Z,7.95
2023-02-01T09:13:43.901Z,8.57
2023-02-01T09:18:56.070Z,8.68
2023-02-01T09:24:07.751Z,7.88
2023-02-01T09:29:12.081Z,9.65
2023-02-01T09:34:13.474Z,10.25
2023-02-01T09:39:14.881Z,7.00
2023-02-01T09:44:35.565Z,8.73
2023-02-01T09:49:51.630Z,7.50
2023-02-01T09:55:01.732Z,10.27
2023-02-01T10:00:16.291Z,10.20
2023-02-01T10:05:30.050Z,7.28
2023-02-01T10:10:40.794Z,11.23
2023-02-01T10:16:17.432Z,8.02
2023-02-01T10:21:44.722Z,8.13
2023-02-01T10:26:55.948Z,9.73
2023-02-01T10:31:58.506Z,11.05
2023-02-01T10:37:19.885Z,7.07
2023-02-01T10:42:25.348Z,8.65
2023-02-01T10:47:26.781Z,11.02
2023-02-01T10:52:35.713Z,7.40
2023-02-01T10:57:37.352Z,9.18
2023-02-01T11:02:38.700Z,11.63
2023-02-01T11:07:46.992Z,10.63
2023-02-01T11:12:54.875Z,11.73
2023-02-01T11:17:57.464Z,10.25
2023-02-01T11:22:59.297Z,9.02
2023-02-01T11:28:00.687Z,9.63
2023-02-01T11:33:06.298Z,9.02
2023-02-01T11:38:23.638Z,9.85
2023-02-01T11:43:28.230Z,11.80
2023-02-01T11:48:34.351Z,9.30
2023-02-01T11:53:47.375Z,9.88
2023-02-01T11:59:26.373Z,12.02
2023-02-01T12:04:58.455Z,9.60
2023-02-01T12:10:19.558Z,8.20
2023-02-01T12:15:48.204Z,7.25
2023-02-01T12:21:11.558Z,10.77
2023-02-01T12:26:12.835Z,10.18
2023-02-01T12:31:42.092Z,11.13
2023-02-01T12:36:46.553Z,7.95
2023-02-01T12:42:14.578Z,8.07
2023-02-01T12:47:30.472Z,11.90
2023-02-01T12:52:36.337Z,14.00
2023-02-01T12:57:46.516Z,10.40
2023-02-01T13:03:00.223Z,13.38
2023-02-01T13:08:13.195Z,10.15
2023-02-01T13:13:17.554Z,11.32
2023-02-01T13:18:22.307Z,9.18
2023-02-01T13:23:31.633Z,7.50
2023-02-01T13:28:50.492Z,8.52
2023-02-01T13:34:40.353Z,8.57
2023-02-01T13:40:09.423Z,8.98
2023-02-01T13:45:17.193Z,10.85
2023-02-01T13:50:18.481Z,9.07
2023-02-01T13:55:23.183Z,8.13
2023-02-01T14:00:38.814Z,9.90
2023-02-01T14:05:40.396Z,10.27
2023-02-01T14:10:53.906Z,7.85
2023-02-01T14:16:04.480Z,12.45
2023-02-01T14:21:31.538Z,10.38
2023-02-01T14:26:35.751Z,5.80
2023-02-01T14:31:55.868Z,11.98
2023-02-01T14:37:02.565Z,9.60
2023-02-01T14:42:16.261Z,6.65
2023-02-01T14:47:30.098Z,8.35
2023-02-01T14:52:44.800Z,7.20
2023-02-01T14:57:50.445Z,10.98
2023-02-01T15:02:53.877Z,6.00
2023-02-01T15:07:55.302Z,6.75
2023-02-01T15:12:56.651Z,6.35
2023-02-01T15:18:01.185Z,8.18
2023-02-01T15:23:05.401Z,6.97
2023-02-01T15:28:14.218Z,6.32
2023-02-01T15:33:17.210Z,6.72
2023-02-01T15:38:32.307Z,6.57
2023-02-01T15:43:44.083Z,7.32
2023-02-01T15:48:50.027Z,6.55
2023-02-01T15:54:07.334Z,7.18
2023-02-01T15:59:18.443Z,6.32
2023-02-01T16:04:30.641Z,7.93
2023-02-01T16:09:39.748Z,9.68
2023-02-01T16:14:41.456Z,11.18
2023-02-01T16:19:42.923Z,9.07
2023-02-01T16:24:44.346Z,6.05
2023-02-01T16:29:45.808Z,5.15
2023-02-01T16:34:47.856Z,5.50
2023-02-01T16:39:49.365Z,6.80
2023-02-01T16:44:51.099Z,8.68
2023-02-01T16:49:52.664Z,5.70
2023-02-01T16:54:54.185Z,5.50
2023-02-01T16:59:55.528Z,5.38
2023-02-01T17:04:56.957Z,4.63
2023-02-01T17:09:58.355Z,6.22
2023-02-01T17:15:01.231Z,6.85
2023-02-01T17:20:04.181Z,6.63
2023-02-01T17:25:14.480Z,5.18
2023-02-01T17:30:16.219Z,7.88
2023-02-01T17:35:24.599Z,12.73
2023-02-01T17:40:28.154Z,7.75
2023-02-01T17:45:36.974Z,5.72
2023-02-01T17:50:38.992Z,4.70
2023-02-01T17:55:44.280Z,8.43
2023-02-01T18:00:47.913Z,10.50
2023-02-01T18:05:53.693Z,7.05
2023-02-01T18:11:00.817Z,7.18
2023-02-01T18:16:03.659Z,6.03
2023-02-01T18:21:05.637Z,7.72
2023-02-01T18:26:11.372Z,7.15
2023-02-01T18:31:34.102Z,7.05
2023-02-01T18:36:35.495Z,6.05
2023-02-01T18:41:36.996Z,8.55
2023-02-01T18:46:38.374Z,5.75
2023-02-01T18:51:39.856Z,7.00
2023-02-01T18:56:42.860Z,8.27
2023-02-01T19:01:44.891Z,7.50
2023-02-01T19:06:46.631Z,8.55
2023-02-01T19:11:47.973Z,5.63
2023-02-01T19:16:50.147Z,5.72
2023-02-01T19:21:52.424Z,7.30
2023-02-01T19:26:54.021Z,5.55
2023-02-01T19:31:55.466Z,5.75
2023-02-01T19:36:56.846Z,7.75
2023-02-01T19:41:59.180Z,5.18
2023-02-01T19:47:00.830Z,9.25
2023-02-01T19:52:02.925Z,6.45
2023-02-01T19:57:04.346Z,8.85
2023-02-01T20:02:05.016Z,9.63
2023-02-01T20:07:06.362Z,7.72
2023-02-01T20:12:11.420Z,5.47
2023-02-01T20:17:15.152Z,6.40
2023-02-01T20:22:16.889Z,7.07
2023-02-01T20:27:19.191Z,7.88
2023-02-01T20:32:20.708Z,6.22
2023-02-01T20:37:22.164Z,8.75
2023-02-01T20:42:23.580Z,6.95
2023-02-01T20:47:24.945Z,6.53
2023-02-01T20:52:26.287Z,7.40
2023-02-01T20:57:27.650Z,6.03
2023-02-01T21:02:29.037Z,6.70
2023-02-01T21:07:30.360Z,6.85
2023-02-01T21:12:31.918Z,4.15
2023-02-01T21:17:33.704Z,7.93
2023-02-01T21:22:35.026Z,8.30
2023-02-01T21:27:36.800Z,7.95
2023-02-01T21:32:38.237Z,8.23
2023-02-01T21:37:39.541Z,6.40
2023-02-01T21:42:42.676Z,9.65
2023-02-01T21:47:44.300Z,5.68
2023-02-01T21:52:46.477Z,7.30
2023-02-01T21:57:47.811Z,7.22
2023-02-01T22:02:49.201Z,5.90
2023-02-01T22:07:50.651Z,7.35
2023-02-01T22:12:51.940Z,7.35
2023-02-01T22:17:53.877Z,5.90
2023-02-01T22:22:56.437Z,8.85
2023-02-01T22:28:30.486Z,5.95
2023-02-01T22:33:19.586Z,9.25
2023-02-01T22:38:21.004Z,8.05
2023-02-01T22:43:23.076Z,5.65
2023-02-01T22:48:24.483Z,4.93
2023-02-01T22:53:26.768Z,3.95
2023-02-01T22:58:28.571Z,5.10
2023-02-01T23:03:30.075Z,5.88
2023-02-01T23:08:33.933Z,6.28
2023-02-01T23:13:36.956Z,6.43
2023-02-01T23:18:39.089Z,5.68
2023-02-01T23:23:45.028Z,7.72
2023-02-01T23:28:47.076Z,4.82
2023-02-01T23:33:49.384Z,6.28
2023-02-01T23:38:51.403Z,4.93
2023-02-01T23:43:58.888Z,6.57
2023-02-01T23:49:01.585Z,6.07
2023-02-01T23:54:03.748Z,3.65
2023-02-01T23:59:09.780Z,5.93
